Dover, DE

2:56 AM EDT on September 03, 2014 (GMT -0400)
Fifer Orchards | Change Station
CLOSE
Current Station
Personal Weather Station
Location: Delaware, DE
Elevation: 46 ft
Nearby Weather Stations

Elev 46 ft 39.12 °N, 75.57 °W | Updated 10 minutes ago

Rain
Rain
73.7 °F
Feels Like 70 °F
N
2.0
Wind Variable Wind from West
Gusts 4.0 mph

Today
High -- | Low -- °F
--% Chance of Precip.
Yesterday
High -- | Low -- °F
Precip. -- in
6:32 AM 7:29 PM
First Quarter, 59% visible
Pressure 29.88 in
Visibility 10.0 miles
Clouds Few 7000 ft
Scattered Clouds 16000 ft
Heat Index 70 °F
Dew Point 72 °F
Humidity 95%
Rainfall 0.00 in
Snow Depth Not available.
UV 0 out of 12
Pollen 9.30 out of 12
Air Quality Not available.
Flu Activity Not available.
SPECI KDOV 030613Z AUTO 32005KT 10SM FEW070 SCT160 24/24 A2988 RMK AO2 LTG DSNT SE

More Conditions Fewer Conditions

Pressure 29.88 in
Visibility 10.0 miles
Clouds Few 7000 ft
Scattered Clouds 16000 ft
Heat Index 70 °F
Dew Point 72 °F
Humidity 95%
Rainfall 0.00 in
Snow Depth Not available.
UV 0 out of 12
Pollen 9.30 out of 12
Air Quality Not available.
Flu Activity Not available.
SPECI KDOV 030613Z AUTO 32005KT 10SM FEW070 SCT160 24/24 A2988 RMK AO2 LTG DSNT SE

More Conditions Fewer Conditions

Nowcast | as of 1:52 am EDT on September 3, 2014

Scattered showers and thunderstorms will continue over the Eastern Shore of Maryland and across Kent and Sussex counties in Delaware through 3am. Brief heavy downpours, lightning and wind gusts under 30 mph are possible with any storm.

×

10-Day Weather Forecast

Almanac

Astronomy

Sep. 03, 2014 Rise Set
Actual Time 6:32 AM EDT 7:29 PM EDT
Civil Twilight 6:05 AM EDT 7:56 PM EDT
Nautical Twilight 5:32 AM EDT 8:29 PM EDT
Astronomical Twilight 4:58 AM EDT 9:02 PM EDT
Moon 3:07 PM EDT 12:25 AM EDT
Length of Visible Light 13h 51m
Length of Day
12h 57m
Tomorrow will be 2m 28s shorter.
First Quarter, 59% of the Moon is Illuminated
Today
First Quarter
Sep 8
Full
Sep 15
Last Quarter
Sep 24
New
Oct 1
First Quarter

Today's Extremes

State Highs State Lows

Community

WunderPhotos

Upload Photos

1,749,888 photos uploaded!

Nearby

Snow Depth

Station Depth Elevation
No new snow has been reported.

Earthquake Activity

City Distance Mag. Time & Date
No recent earthquake activity has been reported nearby.
Minimum magnitude displayed is 2.5.

Coastal Water Temperatures

Place Temperature
Ship John Shoal, NJ 78.1 °F
Cape May, NJ 82.0 °F
Reedy Point, DE 79.0 °F
Delaware City, DE 79.0 °F
Marcus Hook, PA 79.0 °F

Nearby Weather Stations